createdAt,value
2018-04-01T00:01:07.385Z,28.56
2018-04-01T00:03:34.992Z,28.63
2018-04-01T00:06:02.675Z,28.21
2018-04-01T00:08:30.288Z,29.37
2018-04-01T00:10:57.893Z,29.80
2018-04-01T00:13:25.600Z,29.58
2018-04-01T00:15:53.228Z,30.72
2018-04-01T00:18:20.796Z,30.91
2018-04-01T00:20:48.480Z,31.34
2018-04-01T00:23:16.041Z,32.22
2018-04-01T00:25:43.633Z,32.46
2018-04-01T00:28:11.234Z,30.80
2018-04-01T00:30:38.792Z,31.95
2018-04-01T00:33:06.505Z,31.04
2018-04-01T00:35:34.164Z,31.81
2018-04-01T00:38:01.784Z,30.70
2018-04-01T00:40:29.505Z,31.71
2018-04-01T00:42:57.121Z,30.39
2018-04-01T00:45:24.698Z,30.15
2018-04-01T00:47:52.340Z,30.02
2018-04-01T00:50:19.920Z,29.81
2018-04-01T00:52:47.529Z,30.08
2018-04-01T00:55:15.087Z,29.96
2018-04-01T00:57:42.696Z,30.37
2018-04-01T01:00:10.305Z,30.20
2018-04-01T01:02:37.864Z,30.69
2018-04-01T01:05:05.521Z,31.43
2018-04-01T01:07:33.133Z,31.87
2018-04-01T01:10:00.772Z,33.75
2018-04-01T01:12:28.404Z,33.97
2018-04-01T01:14:55.958Z,35.29
2018-04-01T01:17:23.542Z,34.88
2018-04-01T01:19:51.139Z,36.59
2018-04-01T01:22:18.758Z,37.29
2018-04-01T01:24:46.504Z,36.71
2018-04-01T01:27:14.072Z,37.38
2018-04-01T01:29:41.652Z,35.89
2018-04-01T01:32:09.248Z,38.62
2018-04-01T01:34:36.944Z,39.78
2018-04-01T01:37:04.503Z,39.25
2018-04-01T01:39:32.113Z,41.30
2018-04-01T01:41:59.674Z,43.11
2018-04-01T01:44:27.286Z,42.85
2018-04-01T01:46:54.916Z,41.39
2018-04-01T01:49:22.601Z,42.19
2018-04-01T01:51:50.209Z,38.96
2018-04-01T01:54:17.892Z,42.09
2018-04-01T01:56:45.510Z,42.05
2018-04-01T01:59:13.080Z,41.99
2018-04-01T02:01:40.682Z,42.12
2018-04-01T02:04:08.257Z,39.48
2018-04-01T02:06:35.928Z,39.75
2018-04-01T02:09:03.500Z,39.44
2018-04-01T02:11:31.113Z,40.21
2018-04-01T02:13:58.808Z,40.34
2018-04-01T02:16:26.392Z,40.74
2018-04-01T02:18:53.969Z,41.29
2018-04-01T02:21:21.524Z,41.96
2018-04-01T02:23:49.108Z,42.11
2018-04-01T02:26:16.715Z,44.14
2018-04-01T02:28:44.321Z,42.85
2018-04-01T02:31:11.912Z,44.46
2018-04-01T02:33:39.487Z,44.38
2018-04-01T02:36:07.128Z,45.55
2018-04-01T02:38:34.715Z,46.62
2018-04-01T02:41:02.291Z,47.39
2018-04-01T02:43:29.904Z,48.68
2018-04-01T02:45:57.539Z,48.80
2018-04-01T02:48:25.111Z,49.73
2018-04-01T02:50:52.805Z,52.44
2018-04-01T02:53:20.431Z,54.01
2018-04-01T02:55:48.005Z,55.36
2018-04-01T02:58:15.686Z,55.36
2018-04-01T03:00:43.312Z,55.38
2018-04-01T03:03:10.904Z,56.02
2018-04-01T03:05:38.468Z,57.07
2018-04-01T03:08:06.065Z,57.79
2018-04-01T03:10:33.717Z,57.60
2018-04-01T03:13:01.334Z,60.56
2018-04-01T03:15:28.899Z,60.55
2018-04-01T03:17:56.510Z,62.15
2018-04-01T03:20:24.078Z,63.56
2018-04-01T03:22:51.703Z,63.77
2018-04-01T03:25:19.295Z,65.08
2018-04-01T03:27:47.003Z,66.36
2018-04-01T03:30:14.708Z,67.92
2018-04-01T03:32:42.333Z,69.14
2018-04-01T03:35:09.945Z,69.10
2018-04-01T03:37:37.558Z,72.42
2018-04-01T03:40:05.124Z,75.25
2018-04-01T03:42:32.731Z,80.17
2018-04-01T03:45:00.339Z,81.21
2018-04-01T03:47:27.960Z,78.82
2018-04-01T03:49:55.528Z,76.68
2018-04-01T03:52:23.248Z,79.48
2018-04-01T03:54:50.848Z,77.44
2018-04-01T03:57:18.427Z,79.01
2018-04-01T03:59:45.987Z,79.87
2018-04-01T04:02:13.638Z,80.47
2018-04-01T04:04:41.335Z,78.88
2018-04-01T04:07:08.961Z,78.88
2018-04-01T04:09:36.561Z,78.06
2018-04-01T04:12:04.173Z,77.24
2018-04-01T04:14:31.729Z,78.43
2018-04-01T04:16:59.307Z,78.77
2018-04-01T04:19:26.905Z,80.27
2018-04-01T04:21:54.493Z,80.50
2018-04-01T04:24:22.113Z,75.85
2018-04-01T04:26:49.724Z,78.62
2018-04-01T04:29:17.352Z,78.72
2018-04-01T04:31:44.909Z,80.18
2018-04-01T04:34:12.506Z,79.96
2018-04-01T04:36:40.110Z,80.92
2018-04-01T04:39:07.720Z,79.92
2018-04-01T04:41:35.403Z,80.09
2018-04-01T04:44:02.977Z,80.18
2018-04-01T04:46:30.580Z,76.40
2018-04-01T04:48:58.191Z,79.09
2018-04-01T04:51:25.815Z,79.80
2018-04-01T04:53:53.372Z,77.57
2018-04-01T04:56:20.969Z,71.39
2018-04-01T04:58:53.520Z,73.68
2018-04-01T05:01:21.152Z,69.89
2018-04-01T05:03:48.712Z,66.00
2018-04-01T05:06:16.317Z,64.14
2018-04-01T05:08:43.919Z,57.73
2018-04-01T05:11:11.526Z,56.63
2018-04-01T05:13:39.203Z,52.18
2018-04-01T05:16:06.797Z,54.42
2018-04-01T05:18:34.483Z,51.90
2018-04-01T05:21:02.064Z,52.85
2018-04-01T05:23:29.680Z,51.77
2018-04-01T05:25:57.353Z,53.21
2018-04-01T05:28:25.430Z,51.71
2018-04-01T05:30:52.990Z,52.23
2018-04-01T05:33:20.597Z,52.68
2018-04-01T05:35:48.256Z,53.08
2018-04-01T05:38:15.817Z,52.60
2018-04-01T05:40:43.532Z,53.01
2018-04-01T05:43:11.164Z,55.71
2018-04-01T05:45:38.729Z,52.50
2018-04-01T05:48:06.468Z,52.69
2018-04-01T05:50:34.033Z,53.96
2018-04-01T05:53:01.622Z,53.18
2018-04-01T05:55:29.277Z,51.94
2018-04-01T05:57:56.850Z,52.32
2018-04-01T06:00:24.484Z,52.29
2018-04-01T06:02:52.177Z,48.95
2018-04-01T06:05:19.789Z,48.27
2018-04-01T06:07:47.360Z,47.27
2018-04-01T06:10:15.002Z,47.15
2018-04-01T06:12:42.683Z,46.28
2018-04-01T06:15:10.377Z,46.68
2018-04-01T06:17:37.978Z,46.41
2018-04-01T06:20:05.535Z,45.77
2018-04-01T06:22:33.275Z,45.05
2018-04-01T06:25:00.882Z,44.50
2018-04-01T06:27:28.506Z,45.74
2018-04-01T06:29:56.075Z,45.76
2018-04-01T06:32:23.821Z,46.49
2018-04-01T06:34:51.430Z,47.25
2018-04-01T06:37:18.995Z,47.97
2018-04-01T06:39:46.664Z,44.79
2018-04-01T06:42:14.264Z,47.83
2018-04-01T06:44:41.950Z,48.36
2018-04-01T06:47:09.589Z,48.00
2018-04-01T06:49:37.212Z,48.68
2018-04-01T06:52:04.799Z,49.10
2018-04-01T06:54:32.412Z,47.12
2018-04-01T06:57:00.035Z,48.09
2018-04-01T06:59:27.637Z,46.60
2018-04-01T07:01:55.197Z,44.89
2018-04-01T07:04:22.764Z,43.50
2018-04-01T07:06:50.395Z,41.40
2018-04-01T07:09:17.976Z,41.22
2018-04-01T07:11:45.544Z,41.60
2018-04-01T07:14:13.152Z,40.87
2018-04-01T07:16:40.735Z,40.66
2018-04-01T07:19:08.327Z,40.78
2018-04-01T07:21:35.962Z,41.49
2018-04-01T07:24:03.552Z,41.29
2018-04-01T07:26:31.115Z,39.04
2018-04-01T07:28:58.744Z,39.46
2018-04-01T07:31:26.474Z,40.26
2018-04-01T07:33:54.048Z,40.00
2018-04-01T07:36:21.720Z,40.93
2018-04-01T07:38:49.310Z,40.13
2018-04-01T07:41:16.913Z,39.55
2018-04-01T07:43:44.518Z,39.88
2018-04-01T07:46:12.152Z,40.55
2018-04-01T07:48:39.778Z,41.56
2018-04-01T07:51:07.782Z,40.21
2018-04-01T07:53:35.405Z,41.29
2018-04-01T07:56:03.014Z,40.46
2018-04-01T07:58:30.621Z,40.20
2018-04-01T08:00:58.241Z,40.36
2018-04-01T08:03:25.807Z,40.29
2018-04-01T08:05:53.468Z,40.10
2018-04-01T08:08:21.116Z,39.14
2018-04-01T08:10:48.744Z,39.05
2018-04-01T08:13:16.354Z,38.87
2018-04-01T08:15:43.956Z,38.83
2018-04-01T08:18:11.537Z,38.52
2018-04-01T08:20:39.180Z,38.49
2018-04-01T08:23:06.816Z,38.15
2018-04-01T08:25:34.378Z,38.16
2018-04-01T08:28:02.040Z,36.80
2018-04-01T08:30:29.656Z,35.46
2018-04-01T08:32:57.224Z,36.64
2018-04-01T08:35:24.919Z,36.46
2018-04-01T08:37:52.508Z,36.32
2018-04-01T08:40:20.170Z,35.44
2018-04-01T08:42:47.738Z,34.96
2018-04-01T08:45:15.349Z,33.93
2018-04-01T08:47:42.986Z,36.46
2018-04-01T08:50:10.567Z,35.92
2018-04-01T08:52:38.194Z,35.36
2018-04-01T08:55:05.821Z,35.63
2018-04-01T08:57:33.401Z,34.61
2018-04-01T09:00:00.988Z,34.04
2018-04-01T09:02:28.603Z,34.64
2018-04-01T09:04:56.232Z,34.84
2018-04-01T09:07:23.808Z,33.69
2018-04-01T09:09:51.495Z,33.70
2018-04-01T09:12:19.220Z,33.57
2018-04-01T09:14:46.814Z,33.90
2018-04-01T09:17:14.420Z,32.95
2018-04-01T09:19:41.989Z,35.62
2018-04-01T09:22:09.582Z,37.40
2018-04-01T09:24:37.217Z,36.30
2018-04-01T09:27:04.848Z,34.73
2018-04-01T09:29:32.484Z,34.72
2018-04-01T09:32:00.112Z,37.06
2018-04-01T09:34:27.786Z,37.73
2018-04-01T09:36:55.407Z,35.68
2018-04-01T09:39:23.093Z,34.88
2018-04-01T09:41:50.693Z,35.46
2018-04-01T09:44:18.408Z,35.77
2018-04-01T09:46:45.973Z,39.70
2018-04-01T09:49:14.380Z,42.01
2018-04-01T09:51:41.957Z,44.77
2018-04-01T09:54:09.685Z,45.01
2018-04-01T09:56:37.248Z,48.13
2018-04-01T09:59:04.848Z,42.64
2018-04-01T10:01:32.959Z,41.36
2018-04-01T10:04:01.131Z,42.33
2018-04-01T10:06:29.336Z,44.13
2018-04-01T10:08:57.945Z,42.27
2018-04-01T10:11:26.324Z,48.61
2018-04-01T10:13:54.776Z,45.49
2018-04-01T10:16:23.189Z,44.85
2018-04-01T10:18:51.703Z,40.27
2018-04-01T10:21:20.344Z,42.81
2018-04-01T10:23:48.784Z,41.61
2018-04-01T10:26:17.181Z,37.19
2018-04-01T10:28:45.710Z,38.09
2018-04-01T10:31:14.158Z,38.74
2018-04-01T10:33:42.590Z,39.45
2018-04-01T10:36:10.989Z,40.13
2018-04-01T10:38:39.385Z,40.01
2018-04-01T10:41:07.852Z,41.39
2018-04-01T10:43:36.289Z,42.22
2018-04-01T10:46:04.748Z,41.23
2018-04-01T10:48:33.143Z,39.41
2018-04-01T10:51:01.584Z,37.72
2018-04-01T10:53:30.020Z,36.38
2018-04-01T10:55:57.915Z,36.54
2018-04-01T10:58:26.491Z,35.74
2018-04-01T11:00:54.105Z,36.61
2018-04-01T11:03:21.709Z,34.86
2018-04-01T11:05:49.300Z,33.75
2018-04-01T11:08:16.868Z,34.88
2018-04-01T11:10:44.432Z,33.38
2018-04-01T11:13:12.104Z,34.83
2018-04-01T11:15:39.679Z,36.46
2018-04-01T11:18:07.343Z,43.50
2018-04-01T11:20:34.961Z,48.53
2018-04-01T11:23:02.541Z,52.44
2018-04-01T11:25:30.232Z,64.40
2018-04-01T11:27:57.816Z,71.11
2018-04-01T11:30:25.440Z,74.16
2018-04-01T11:32:52.996Z,76.06
2018-04-01T11:35:20.601Z,76.47
2018-04-01T11:37:48.210Z,77.83
2018-04-01T11:40:15.816Z,80.21
2018-04-01T11:42:43.373Z,81.55
2018-04-01T11:45:10.972Z,82.80
2018-04-01T11:47:38.794Z,82.73
2018-04-01T11:50:06.372Z,82.57
2018-04-01T11:52:33.937Z,81.74
2018-04-01T11:55:01.552Z,82.82
2018-04-01T11:57:29.229Z,82.52
2018-04-01T11:59:56.866Z,82.47
2018-04-01T12:02:24.459Z,80.09
2018-04-01T12:04:52.067Z,76.62
2018-04-01T12:07:19.748Z,75.26
2018-04-01T12:09:47.392Z,72.96
2018-04-01T12:12:14.952Z,71.98
2018-04-01T12:14:42.573Z,72.64
2018-04-01T12:17:10.137Z,76.16
2018-04-01T12:19:37.707Z,72.10
2018-04-01T12:22:05.323Z,73.31
2018-04-01T12:24:32.937Z,70.69
2018-04-01T12:27:00.562Z,71.77
2018-04-01T12:29:28.165Z,70.26
2018-04-01T12:31:55.879Z,70.84
2018-04-01T12:34:23.549Z,68.60
2018-04-01T12:36:51.108Z,70.26
2018-04-01T12:39:18.724Z,62.48
2018-04-01T12:41:46.293Z,63.05
2018-04-01T12:44:13.983Z,60.02
2018-04-01T12:46:41.591Z,57.60
2018-04-01T12:49:09.203Z,54.74
2018-04-01T12:51:36.848Z,49.81
2018-04-01T12:54:04.416Z,50.33
2018-04-01T12:56:32.030Z,50.05
2018-04-01T12:58:59.756Z,49.06
2018-04-01T13:01:27.373Z,48.07
2018-04-01T13:03:54.956Z,46.31
2018-04-01T13:06:22.576Z,41.94
2018-04-01T13:08:50.172Z,43.43
2018-04-01T13:11:17.762Z,38.16
2018-04-01T13:13:45.360Z,36.99
2018-04-01T13:16:12.974Z,38.39
2018-04-01T13:18:40.605Z,37.50
2018-04-01T13:21:08.182Z,33.88
2018-04-01T13:23:35.830Z,36.22
2018-04-01T13:26:03.445Z,32.58
2018-04-01T13:28:31.036Z,29.36
2018-04-01T13:30:58.601Z,32.36
2018-04-01T13:33:26.218Z,32.28
2018-04-01T13:35:53.836Z,30.10
2018-04-01T13:38:21.407Z,27.61
2018-04-01T13:40:49.015Z,28.57
2018-04-01T13:43:16.616Z,31.64
2018-04-01T13:45:44.192Z,37.89
2018-04-01T13:48:11.910Z,48.23
2018-04-01T13:50:39.481Z,52.51
2018-04-01T13:53:07.055Z,56.43
2018-04-01T13:55:34.684Z,61.11
2018-04-01T13:58:02.255Z,64.31
2018-04-01T14:00:29.824Z,66.99
2018-04-01T14:02:57.408Z,68.62
2018-04-01T14:05:25.013Z,71.37
2018-04-01T14:07:52.576Z,72.79
2018-04-01T14:10:20.164Z,74.00
2018-04-01T14:12:47.718Z,74.88
2018-04-01T14:15:15.326Z,74.48
2018-04-01T14:17:42.894Z,76.34
2018-04-01T14:20:10.465Z,74.76
2018-04-01T14:22:38.128Z,73.67
2018-04-01T14:25:05.692Z,71.13
2018-04-01T14:27:33.296Z,72.46
2018-04-01T14:30:00.938Z,70.14
2018-04-01T14:32:28.683Z,69.10
2018-04-01T14:34:56.611Z,67.92
2018-04-01T14:37:24.313Z,67.80
2018-04-01T14:39:51.894Z,67.77
2018-04-01T14:42:19.488Z,67.00
2018-04-01T14:44:47.118Z,65.58
2018-04-01T14:47:14.674Z,62.88
2018-04-01T14:49:42.241Z,62.75
2018-04-01T14:52:09.938Z,63.35
2018-04-01T14:54:37.538Z,62.44
2018-04-01T14:57:05.254Z,62.27
2018-04-01T14:59:32.917Z,60.76
2018-04-01T15:02:01.022Z,61.11
2018-04-01T15:04:28.635Z,61.68
2018-04-01T15:06:56.250Z,61.26
2018-04-01T15:09:23.835Z,58.82
2018-04-01T15:11:51.448Z,59.35
2018-04-01T15:14:19.104Z,59.61
2018-04-01T15:16:47.650Z,57.17
2018-04-01T15:19:15.346Z,57.31
2018-04-01T15:21:42.960Z,57.57
2018-04-01T15:24:10.556Z,60.29
2018-04-01T15:26:38.117Z,60.13
2018-04-01T15:29:05.724Z,60.04
2018-04-01T15:31:33.328Z,60.68
2018-04-01T15:34:00.883Z,60.57
2018-04-01T15:36:28.513Z,63.04
2018-04-01T15:38:56.072Z,65.30
2018-04-01T15:41:23.755Z,65.85
2018-04-01T15:43:51.345Z,65.35
2018-04-01T15:46:18.908Z,66.09
2018-04-01T15:48:46.514Z,66.77
2018-04-01T15:51:14.123Z,67.28
2018-04-01T15:53:41.745Z,66.76
2018-04-01T15:56:09.309Z,67.94
2018-04-01T15:58:36.968Z,68.32
2018-04-01T16:01:04.627Z,68.28
2018-04-01T16:03:32.237Z,68.66
2018-04-01T16:05:59.832Z,68.18
2018-04-01T16:08:27.556Z,68.49
2018-04-01T16:10:55.152Z,68.93
2018-04-01T16:13:22.900Z,70.24
2018-04-01T16:15:50.488Z,69.83
2018-04-01T16:18:18.110Z,67.96
2018-04-01T16:20:45.695Z,67.22
2018-04-01T16:23:13.286Z,67.19
2018-04-01T16:25:40.887Z,67.72
2018-04-01T16:28:08.448Z,68.05
2018-04-01T16:30:36.097Z,69.30
2018-04-01T16:33:04.095Z,71.10
2018-04-01T16:35:31.692Z,72.87
2018-04-01T16:37:59.258Z,74.58
2018-04-01T16:40:26.817Z,75.46
2018-04-01T16:42:54.424Z,76.90
2018-04-01T16:45:22.053Z,76.01
2018-04-01T16:47:49.741Z,75.87
2018-04-01T16:50:17.304Z,75.09
2018-04-01T16:52:44.893Z,75.94
2018-04-01T16:55:12.486Z,74.47
2018-04-01T16:57:40.046Z,75.27
2018-04-01T17:00:07.664Z,73.81
2018-04-01T17:02:35.228Z,73.78
2018-04-01T17:05:02.784Z,73.67
2018-04-01T17:07:30.402Z,73.54
2018-04-01T17:09:57.988Z,73.64
2018-04-01T17:12:25.608Z,72.57
2018-04-01T17:14:53.316Z,72.94
2018-04-01T17:17:20.919Z,70.57
2018-04-01T17:19:48.533Z,71.15
2018-04-01T17:22:16.088Z,69.78
2018-04-01T17:24:43.699Z,70.05
2018-04-01T17:27:11.343Z,69.58
2018-04-01T17:29:38.905Z,69.39
2018-04-01T17:32:06.504Z,69.37
2018-04-01T17:34:34.073Z,69.71
2018-04-01T17:37:01.690Z,69.40
2018-04-01T17:39:29.253Z,69.56
2018-04-01T17:41:56.856Z,69.62
2018-04-01T17:44:24.409Z,69.14
2018-04-01T17:46:52.032Z,69.30
2018-04-01T17:49:19.640Z,68.87
2018-04-01T17:51:47.247Z,68.96
2018-04-01T17:54:14.804Z,68.46
2018-04-01T17:56:42.430Z,69.82
2018-04-01T17:59:10.016Z,69.26
2018-04-01T18:01:37.575Z,68.83
2018-04-01T18:04:05.214Z,68.78
2018-04-01T18:06:32.804Z,69.92
2018-04-01T18:09:00.366Z,69.10
2018-04-01T18:11:28.120Z,69.20
2018-04-01T18:13:55.692Z,69.59
2018-04-01T18:16:23.285Z,69.41
2018-04-01T18:18:50.896Z,68.78
2018-04-01T18:21:18.520Z,69.06
2018-04-01T18:23:46.125Z,69.29
2018-04-01T18:26:13.685Z,68.43
2018-04-01T18:28:41.303Z,68.00
2018-04-01T18:31:08.881Z,68.12
2018-04-01T18:33:36.449Z,66.39
2018-04-01T18:36:04.061Z,66.84
2018-04-01T18:38:31.644Z,67.23
2018-04-01T18:40:59.266Z,67.01
2018-04-01T18:43:26.856Z,67.30
2018-04-01T18:45:54.476Z,66.51
2018-04-01T18:48:22.089Z,66.14
2018-04-01T18:50:49.641Z,67.02
2018-04-01T18:53:17.233Z,65.66
2018-04-01T18:55:44.820Z,66.15
2018-04-01T18:58:12.641Z,65.50
2018-04-01T19:00:40.223Z,65.67
2018-04-01T19:03:07.786Z,64.86
2018-04-01T19:05:35.399Z,65.51
2018-04-01T19:08:03.025Z,65.25
2018-04-01T19:10:30.652Z,65.00
2018-04-01T19:12:58.214Z,65.22
2018-04-01T19:15:25.848Z,64.61
2018-04-01T19:17:54.005Z,64.83
2018-04-01T19:20:22.399Z,64.33
2018-04-01T19:22:50.832Z,64.24
2018-04-01T19:25:19.335Z,64.26
2018-04-01T19:27:47.726Z,64.61
2018-04-01T19:30:16.223Z,64.10
2018-04-01T19:32:44.656Z,65.38
2018-04-01T19:35:13.159Z,65.53
2018-04-01T19:37:41.538Z,65.24
2018-04-01T19:40:10.045Z,65.66
2018-04-01T19:42:38.440Z,65.44
2018-04-01T19:45:06.868Z,65.50
2018-04-01T19:47:35.338Z,65.49
2018-04-01T19:50:03.817Z,65.50
2018-04-01T19:52:32.273Z,65.05
2018-04-01T19:55:00.700Z,64.80
2018-04-01T19:57:29.154Z,64.29
2018-04-01T19:59:57.608Z,64.33
2018-04-01T20:02:26.000Z,64.37
2018-04-01T20:04:54.372Z,63.62
2018-04-01T20:07:22.820Z,63.71
2018-04-01T20:09:51.213Z,63.08
2018-04-01T20:12:19.665Z,63.41
2018-04-01T20:14:48.061Z,64.10
2018-04-01T20:17:16.456Z,63.63
2018-04-01T20:19:44.887Z,63.13
2018-04-01T20:22:13.301Z,63.59
2018-04-01T20:24:41.773Z,63.38
2018-04-01T20:27:10.222Z,63.79
2018-04-01T20:29:38.624Z,62.92
2018-04-01T20:32:07.070Z,64.74
2018-04-01T20:34:35.522Z,64.49
2018-04-01T20:37:03.936Z,64.68
2018-04-01T20:39:32.345Z,64.67
2018-04-01T20:42:00.784Z,65.21
2018-04-01T20:44:29.169Z,64.71
2018-04-01T20:46:57.626Z,64.48
2018-04-01T20:49:26.048Z,64.73
2018-04-01T20:51:54.590Z,64.13
2018-04-01T20:54:22.973Z,64.08
2018-04-01T20:56:51.365Z,62.63
2018-04-01T20:59:19.815Z,61.12
2018-04-01T21:01:48.232Z,61.75
2018-04-01T21:04:16.683Z,61.13
2018-04-01T21:06:45.151Z,61.84
2018-04-01T21:09:13.626Z,62.53
2018-04-01T21:11:42.038Z,62.57
2018-04-01T21:14:10.420Z,62.62
2018-04-01T21:16:38.869Z,62.31
2018-04-01T21:19:07.273Z,62.44
2018-04-01T21:21:35.754Z,62.45
2018-04-01T21:24:04.151Z,62.24
2018-04-01T21:26:32.650Z,62.03
2018-04-01T21:29:01.100Z,61.85
2018-04-01T21:31:29.534Z,62.41
2018-04-01T21:33:57.945Z,62.45
2018-04-01T21:36:26.377Z,62.22
2018-04-01T21:38:54.824Z,61.70
2018-04-01T21:41:23.213Z,61.71
2018-04-01T21:43:51.628Z,61.53
2018-04-01T21:46:20.043Z,61.33
2018-04-01T21:48:48.490Z,62.00
2018-04-01T21:51:16.882Z,62.34
2018-04-01T21:53:45.316Z,61.51
2018-04-01T21:56:13.717Z,60.71
2018-04-01T21:58:42.122Z,60.37
2018-04-01T22:01:10.590Z,60.73
2018-04-01T22:03:39.009Z,60.41
2018-04-01T22:06:07.464Z,61.68
2018-04-01T22:08:35.854Z,61.61
2018-04-01T22:11:04.278Z,61.17
2018-04-01T22:13:32.706Z,61.70
2018-04-01T22:16:01.104Z,60.98
2018-04-01T22:18:29.545Z,61.07
2018-04-01T22:20:57.937Z,61.46
2018-04-01T22:23:26.359Z,61.58
2018-04-01T22:25:54.826Z,61.51
2018-04-01T22:28:23.230Z,61.87
2018-04-01T22:30:51.630Z,62.95
2018-04-01T22:33:20.038Z,63.58
2018-04-01T22:35:48.485Z,62.94
2018-04-01T22:38:17.013Z,64.18
2018-04-01T22:40:45.462Z,64.41
2018-04-01T22:43:13.929Z,63.38
2018-04-01T22:45:42.346Z,64.31
2018-04-01T22:48:10.777Z,63.47
2018-04-01T22:50:39.175Z,64.29
2018-04-01T22:53:07.604Z,63.28
2018-04-01T22:55:36.069Z,62.64
2018-04-01T22:58:04.473Z,61.06
2018-04-01T23:00:32.949Z,60.31
2018-04-01T23:03:07.140Z,62.03
2018-04-01T23:05:35.579Z,60.46
2018-04-01T23:08:04.013Z,59.44
2018-04-01T23:10:32.388Z,60.48
2018-04-01T23:13:00.826Z,60.24
2018-04-01T23:15:29.228Z,59.18
2018-04-01T23:17:57.619Z,59.52
2018-04-01T23:20:26.017Z,59.68
2018-04-01T23:22:54.445Z,59.38
2018-04-01T23:25:22.876Z,59.55
2018-04-01T23:27:51.321Z,59.06
2018-04-01T23:30:19.754Z,58.78
2018-04-01T23:32:48.211Z,58.25
2018-04-01T23:35:16.601Z,57.91
2018-04-01T23:37:45.065Z,58.28
2018-04-01T23:40:13.453Z,59.08
2018-04-01T23:42:41.858Z,58.73
2018-04-01T23:45:10.290Z,58.78
2018-04-01T23:47:38.928Z,58.46
2018-04-01T23:50:07.322Z,58.42
2018-04-01T23:52:35.800Z,58.48
2018-04-01T23:55:04.227Z,59.07
2018-04-01T23:57:32.628Z,58.38
